Time;durP1;ratioP1;P1;durP2;ratioP2;P2;SDS_P1;SDS_P2;PMS_P1;PMS_P2;Temp;Humidity;BMP_temperature;BMP_pressure;BME280_temperature;BME280_humidity;BME280_pressure;Samples;Min_cycle;Max_cycle;Signal;HPM_P1;HPM_P2
2022/04/22 00:04:19;;;;;;;6.65;4.22;;;12.10;99.90;;;;;;6678703;88;20190;-80
2022/04/22 00:14:20;;;;;;;7.40;4.25;;;12.00;99.90;;;;;;6675463;89;20216;-80
2022/04/22 00:24:20;;;;;;;7.67;4.30;;;11.80;99.90;;;;;;6677911;89;20210;-79
2022/04/22 00:34:21;;;;;;;7.45;4.28;;;11.70;99.90;;;;;;6678717;89;20198;-79
2022/04/22 00:44:21;;;;;;;8.88;4.25;;;11.60;99.90;;;;;;6679784;89;20688;-80
2022/04/22 00:54:22;;;;;;;7.53;4.35;;;11.60;99.90;;;;;;6679600;89;20211;-80
2022/04/22 01:14:42;;;;;;;7.18;4.45;;;11.40;99.90;;;;;;6680956;88;20180;-80
2022/04/22 01:24:43;;;;;;;6.53;4.10;;;11.00;99.90;;;;;;6680997;89;20202;-80
2022/04/22 01:34:43;;;;;;;7.65;4.50;;;10.80;99.90;;;;;;6678248;89;20730;-80
2022/04/22 01:44:45;;;;;;;8.43;4.68;;;10.70;99.90;;;;;;6677530;89;20252;-79
2022/04/22 01:54:45;;;;;;;6.95;4.40;;;10.60;99.90;;;;;;6673524;89;20221;-79
2022/04/22 02:14:49;;;;;;;7.25;4.75;;;10.40;99.90;;;;;;6741525;88;20217;-77
2022/04/22 02:24:50;;;;;;;8.50;4.80;;;10.20;99.90;;;;;;6737872;88;20274;-77
2022/04/22 02:34:50;;;;;;;9.18;4.60;;;10.00;99.90;;;;;;6740530;88;20192;-78
2022/04/22 02:55:10;;;;;;;9.88;5.05;;;9.80;99.90;;;;;;6741989;88;20199;-79
2022/04/22 03:05:11;;;;;;;9.43;4.72;;;9.40;99.90;;;;;;6741148;88;20381;-78
2022/04/22 03:15:11;;;;;;;7.37;4.93;;;9.40;99.90;;;;;;6741882;88;20251;-78
2022/04/22 03:25:12;;;;;;;8.50;4.90;;;9.20;99.90;;;;;;6746379;88;20188;-79
2022/04/22 03:35:12;;;;;;;9.73;5.15;;;9.20;99.90;;;;;;6743105;88;20644;-78
2022/04/22 03:45:14;;;;;;;8.00;5.00;;;8.90;99.90;;;;;;6745014;88;20180;-80
2022/04/22 03:55:14;;;;;;;10.77;5.20;;;8.80;99.90;;;;;;6744116;88;20196;-80
2022/04/22 04:05:15;;;;;;;8.45;5.20;;;9.00;99.90;;;;;;6744972;88;20200;-79
2022/04/22 04:25:35;;;;;;;9.23;5.37;;;8.70;99.90;;;;;;6745235;88;20597;-79
2022/04/22 04:35:38;;;;;;;12.68;6.32;;;8.50;99.90;;;;;;6740221;88;20381;-80
2022/04/22 04:45:39;;;;;;;14.35;5.85;;;8.30;99.90;;;;;;6743840;88;20222;-79
2022/04/22 04:55:40;;;;;;;10.23;6.50;;;8.40;99.90;;;;;;6744488;88;20196;-79
2022/04/22 05:05:41;;;;;;;10.95;5.60;;;8.30;99.90;;;;;;6744650;88;20371;-79
2022/04/22 05:15:43;;;;;;;13.05;5.90;;;8.40;99.90;;;;;;6743382;88;20305;-80
2022/04/22 05:25:43;;;;;;;10.73;6.55;;;8.50;99.90;;;;;;6744734;88;20211;-79
2022/04/22 05:35:44;;;;;;;12.35;6.30;;;8.60;99.90;;;;;;6738985;88;20623;-79
2022/04/22 05:45:45;;;;;;;11.98;7.10;;;8.60;99.90;;;;;;6743156;88;20199;-79
2022/04/22 05:55:46;;;;;;;14.65;7.93;;;9.10;99.90;;;;;;6743105;88;20325;-79
2022/04/22 06:05:46;;;;;;;17.17;8.60;;;9.40;99.90;;;;;;6744631;88;20181;-80
2022/04/22 06:15:47;;;;;;;16.33;8.98;;;9.70;99.90;;;;;;6750470;88;20184;-80
2022/04/22 06:25:48;;;;;;;16.42;9.35;;;10.20;99.90;;;;;;6751026;88;20192;-80
2022/04/22 06:35:49;;;;;;;16.98;9.07;;;10.80;99.90;;;;;;6748319;88;20187;-80
2022/04/22 06:45:50;;;;;;;16.55;9.13;;;11.40;99.90;;;;;;6744670;88;20254;-80
2022/04/22 06:55:53;;;;;;;16.17;8.45;;;11.50;99.90;;;;;;6747522;88;20634;-79
2022/04/22 07:05:54;;;;;;;13.20;8.00;;;11.90;99.90;;;;;;6747291;88;20188;-80
2022/04/22 07:15:59;;;;;;;12.82;7.40;;;12.40;99.90;;;;;;6742690;88;20187;-79
2022/04/22 07:26:00;;;;;;;14.15;7.18;;;13.10;99.90;;;;;;6743997;88;20207;-80
2022/04/22 07:36:01;;;;;;;11.95;6.70;;;13.80;99.90;;;;;;6747363;88;20196;-80
2022/04/22 07:56:22;;;;;;;9.50;5.55;;;14.60;99.90;;;;;;6747300;88;20214;-80
2022/04/22 08:16:26;;;;;;;12.07;5.68;;;14.90;99.90;;;;;;6758787;88;20319;-79
2022/04/22 08:26:28;;;;;;;8.00;5.00;;;15.00;99.90;;;;;;6755149;88;20211;-79
2022/04/22 08:36:30;;;;;;;7.18;4.97;;;15.20;99.90;;;;;;6753357;88;20260;-81
2022/04/22 08:56:53;;;;;;;8.15;4.82;;;15.80;99.90;;;;;;6756969;88;20147;-81
2022/04/22 09:06:55;;;;;;;8.63;4.87;;;15.10;99.90;;;;;;6715790;88;20185;-80
2022/04/22 09:16:56;;;;;;;6.90;4.65;;;15.40;99.90;;;;;;6752796;88;20201;-80
2022/04/22 09:27:08;;;;;;;8.35;4.37;;;15.30;99.90;;;;;;6749354;88;20207;-80
2022/04/22 09:47:40;;;;;;;7.35;4.85;;;16.10;98.90;;;;;;6752267;88;20195;-80
2022/04/22 09:57:57;;;;;;;8.43;5.68;;;16.80;98.10;;;;;;6750727;88;20634;-81
2022/04/22 10:08:02;;;;;;;10.32;6.10;;;16.70;97.10;;;;;;6751321;88;20780;-80
2022/04/22 10:18:04;;;;;;;8.82;5.70;;;16.50;96.40;;;;;;6752232;88;20201;-80
2022/04/22 10:28:06;;;;;;;10.85;5.95;;;16.90;95.80;;;;;;6751795;88;20198;-80
2022/04/22 10:38:27;;;;;;;8.93;5.72;;;17.30;95.30;;;;;;6756368;88;20193;-80
2022/04/22 10:48:29;;;;;;;7.60;5.37;;;18.80;93.90;;;;;;6757571;88;20353;-80
2022/04/22 10:58:30;;;;;;;8.50;5.70;;;20.00;92.20;;;;;;6755605;88;20485;-81
2022/04/22 11:08:37;;;;;;;7.22;5.30;;;19.40;92.20;;;;;;6757297;88;20193;-80
2022/04/22 11:18:42;;;;;;;7.68;5.35;;;20.40;90.70;;;;;;6752582;88;20283;-80
2022/04/22 11:28:45;;;;;;;8.65;5.80;;;21.50;88.90;;;;;;6755040;88;20193;-80
2022/04/22 11:38:47;;;;;;;7.78;5.68;;;20.80;84.50;;;;;;6760540;88;20212;-80
2022/04/22 11:48:50;;;;;;;9.60;5.82;;;21.30;84.70;;;;;;6754029;88;20280;-80
2022/04/22 11:58:55;;;;;;;9.10;5.40;;;21.60;81.70;;;;;;6753248;88;20701;-81
2022/04/22 12:08:56;;;;;;;8.05;5.45;;;20.80;82.70;;;;;;6752517;88;20666;-80
2022/04/22 12:18:58;;;;;;;8.88;5.97;;;21.10;83.30;;;;;;6735518;88;20330;-81
2022/04/22 12:29:18;;;;;;;8.43;5.97;;;21.10;80.50;;;;;;6756127;88;20177;-80
2022/04/22 12:39:40;;;;;;;9.00;5.82;;;21.20;79.50;;;;;;6755519;88;20172;-81
2022/04/22 13:00:18;;;;;;;7.87;5.40;;;21.50;77.50;;;;;;6700461;88;20230;-80
2022/04/22 13:10:20;;;;;;;8.90;5.70;;;22.40;76.20;;;;;;6743602;88;20225;-80
2022/04/22 13:20:21;;;;;;;7.70;5.37;;;23.20;73.60;;;;;;6754079;88;20185;-80
2022/04/22 13:30:21;;;;;;;7.37;4.95;;;22.70;73.10;;;;;;6756956;88;20738;-81
2022/04/22 13:40:22;;;;;;;7.18;5.37;;;21.70;75.00;;;;;;6756677;88;20185;-80
2022/04/22 14:00:43;;;;;;;6.45;4.80;;;22.20;74.20;;;;;;6755599;88;20189;-80
2022/04/22 14:11:27;;;;;;;6.05;4.68;;;22.60;72.20;;;;;;6714758;78;20202;-78
2022/04/22 14:21:32;;;;;;;8.50;4.32;;;22.50;71.40;;;;;;6670553;88;20199;-78
2022/04/22 14:31:33;;;;;;;4.62;3.53;;;22.60;72.40;;;;;;6668932;89;20325;-77
2022/04/22 14:41:35;;;;;;;7.55;4.25;;;22.40;72.10;;;;;;6668742;89;20695;-78
2022/04/22 14:51:35;;;;;;;5.53;4.10;;;22.60;69.70;;;;;;6669274;89;20233;-77
2022/04/22 15:01:36;;;;;;;5.55;3.65;;;22.10;70.70;;;;;;6667552;89;20243;-78
2022/04/22 15:11:37;;;;;;;8.85;4.03;;;21.10;72.70;;;;;;6669092;88;20581;-80
2022/04/22 15:31:56;;;;;;;7.72;4.43;;;20.10;73.90;;;;;;6671036;89;20171;-78
2022/04/22 15:41:58;;;;;;;6.70;5.05;;;21.00;74.60;;;;;;6670675;89;20214;-78
2022/04/22 15:51:59;;;;;;;7.35;5.03;;;20.80;73.00;;;;;;6672693;89;20223;-78
2022/04/22 16:01:59;;;;;;;8.38;5.30;;;20.10;75.60;;;;;;6672729;89;20320;-78
2022/04/22 16:22:20;;;;;;;8.02;4.82;;;19.90;75.80;;;;;;6672484;89;20206;-78
2022/04/22 16:32:21;;;;;;;5.68;4.55;;;19.80;75.60;;;;;;6671652;89;20239;-78
2022/04/22 16:42:21;;;;;;;8.80;5.70;;;19.70;76.40;;;;;;6668547;89;20219;-78
2022/04/22 16:52:24;;;;;;;7.53;5.35;;;19.30;77.00;;;;;;6668192;89;20225;-79
2022/04/22 17:02:28;;;;;;;9.27;5.47;;;19.30;77.40;;;;;;6669862;88;20191;-78
2022/04/22 17:12:29;;;;;;;8.15;6.00;;;19.10;78.80;;;;;;6669555;89;20230;-78
2022/04/22 17:22:38;;;;;;;10.63;6.43;;;18.80;79.40;;;;;;6669166;88;20869;-79
2022/04/22 17:32:40;;;;;;;10.07;6.55;;;18.50;80.70;;;;;;6669065;89;20211;-79
2022/04/22 17:42:40;;;;;;;10.63;6.35;;;18.30;82.20;;;;;;6668502;89;20225;-79
2022/04/22 17:52:41;;;;;;;9.73;6.93;;;17.90;82.70;;;;;;6667500;89;20235;-78
2022/04/22 18:02:42;;;;;;;10.15;7.55;;;17.70;83.60;;;;;;6669743;89;20321;-79
2022/04/22 18:12:43;;;;;;;9.98;7.45;;;17.70;84.00;;;;;;6668854;89;20668;-79
2022/04/22 18:22:43;;;;;;;10.63;7.18;;;17.50;84.20;;;;;;6668794;88;20200;-79
2022/04/22 18:32:44;;;;;;;8.90;6.50;;;17.10;85.00;;;;;;6668613;89;20634;-79
2022/04/22 18:42:45;;;;;;;11.68;7.45;;;17.00;86.10;;;;;;6667174;88;20199;-79
2022/04/22 18:52:46;;;;;;;10.32;7.28;;;16.90;86.90;;;;;;6671618;89;20280;-79
2022/04/22 19:02:46;;;;;;;10.82;8.25;;;16.70;87.80;;;;;;6672072;88;20190;-79
2022/04/22 19:12:47;;;;;;;11.15;8.02;;;16.40;87.80;;;;;;6671861;89;20226;-79
2022/04/22 19:22:47;;;;;;;11.45;8.00;;;16.10;89.50;;;;;;6668084;88;20654;-79
2022/04/22 19:32:49;;;;;;;12.90;8.23;;;15.80;90.00;;;;;;6670745;88;20367;-79
2022/04/22 19:42:50;;;;;;;11.32;7.30;;;15.80;90.30;;;;;;6671809;89;20191;-79
2022/04/22 19:52:50;;;;;;;10.57;7.18;;;15.80;90.40;;;;;;6671605;89;20194;-79
2022/04/22 20:02:51;;;;;;;10.10;7.40;;;15.80;90.40;;;;;;6668575;89;20650;-79
2022/04/22 20:12:53;;;;;;;10.55;7.72;;;15.60;91.00;;;;;;6671617;89;20195;-80
2022/04/22 20:22:54;;;;;;;12.50;7.18;;;15.50;91.40;;;;;;6672407;88;20191;-78
2022/04/22 20:32:54;;;;;;;13.73;7.50;;;15.40;92.00;;;;;;6672422;89;20204;-78
2022/04/22 20:42:55;;;;;;;11.63;8.10;;;15.20;92.30;;;;;;6672465;89;20203;-78
2022/04/22 21:03:16;;;;;;;9.05;6.53;;;15.10;93.50;;;;;;6671793;89;20513;-79
2022/04/22 21:13:17;;;;;;;13.32;7.28;;;14.90;94.00;;;;;;6671934;88;20204;-78
2022/04/22 21:23:17;;;;;;;10.35;7.50;;;14.80;94.50;;;;;;6670634;89;20778;-78
2022/04/22 21:33:18;;;;;;;9.48;7.37;;;14.80;95.10;;;;;;6671917;89;20677;-78
2022/04/22 21:43:18;;;;;;;11.12;7.47;;;14.50;96.10;;;;;;6671930;88;20423;-77
2022/04/22 21:53:20;;;;;;;11.52;7.62;;;14.50;96.40;;;;;;6671874;89;20222;-78
2022/04/22 22:03:22;;;;;;;9.30;6.85;;;14.30;96.90;;;;;;6671537;89;20196;-79
2022/04/22 22:13:23;;;;;;;9.32;7.18;;;14.10;98.00;;;;;;6670747;88;20194;-78
2022/04/22 22:23:24;;;;;;;10.95;7.68;;;14.20;98.40;;;;;;6667266;89;20190;-78
2022/04/22 22:33:25;;;;;;;10.52;7.90;;;14.10;98.70;;;;;;6673011;88;20693;-78
2022/04/22 22:43:31;;;;;;;10.38;7.62;;;13.90;99.60;;;;;;6670555;88;20255;-78
2022/04/22 22:53:32;;;;;;;;;;;13.80;99.90;;;;;;6670635;88;20280;-78
2022/04/22 23:03:34;;;;;;;11.88;7.70;;;13.80;99.90;;;;;;6670853;89;20595;-77
2022/04/22 23:13:35;;;;;;;11.57;8.10;;;13.70;99.90;;;;;;6667526;89;20202;-78
2022/04/22 23:23:37;;;;;;;15.25;8.30;;;13.50;99.90;;;;;;6670266;88;20199;-78
2022/04/22 23:33:38;;;;;;;10.60;7.65;;;13.40;99.90;;;;;;6667573;89;20183;-78
2022/04/22 23:43:40;;;;;;;9.68;7.55;;;13.40;99.90;;;;;;6673018;89;20491;-78
2022/04/22 23:53:41;;;;;;;10.88;7.60;;;13.20;99.90;;;;;;6674136;88;20716;-78
